Terminal Aerodrome Forecast
Issued by NWS

Home | Current Version | Previous Version | Text Only | Print | Product List | Glossary On
Versions: 1 2 3 4 5 6 7 8 9 10 11
000
FTUS46 KLOX 281700
TAFBUR
TAF
KBUR 281734Z 2818/2918 VRB03KT P6SM BKN200
     FM282200 19005KT P6SM BKN200
     FM290200 VRB03KT P6SM FEW250=

USA.gov is the U.S. government's official web portal to all federal, state and local government web resources and services.